Ocean Exporter — VRXJ4 — position and weather

sailwx.info

Track history (hours):
 
Tides and Currents Weather Stations Pressure Air Temp Water Temp Dewpoint Dewpoint Depression Visibility Wind Speed Wind Dir Waves Ship Positions

Ocean Exporter

Last reported at 2017-Nov-16 05:45 UTC. Time now 2017-Dec-14 04:35 UTC.
Position S 24°35' W 044°42'.
Warning: this ship's position is 27 days out of date.

Length 169 m; draft 5.6 m.

Type: Cargo ship. MMSI: 477980000.

Date/timePositionNaut miles runAvg speedWind from/ knotsBaromVisibWave heightAir tempDewpointWater temp
2017-Nov-16 05:45S 24°35' W 044°42'310.9
2017-Nov-16 05:28S 24°36' W 044°45'5911.8
2017-Nov-16 00:27S 25°02' W 045°44'712.5
2017-Nov-15 23:52S 25°05' W 045°51'512.5
2017-Nov-15 23:28S 25°07' W 045°56'612.6
2017-Nov-15 22:58S 25°10' W 046°03'712.7
2017-Nov-15 22:27S 25°13' W 046°09'612.6
2017-Nov-15 22:00S 25°15' W 046°15'812.6
2017-Nov-15 21:23S 25°18' W 046°23'912.6
2017-Nov-15 20:39S 25°22' W 046°32'412.6
2017-Nov-15 20:22S 25°24' W 046°35'712.6
2017-Nov-15 19:49S 25°27' W 046°42'512.6
2017-Nov-15 19:26S 25°29' W 046°47'512.7
2017-Nov-15 19:00S 25°31' W 046°52'712.7
2017-Nov-15 18:27S 25°34' W 046°59'612.7
2017-Nov-15 17:59S 25°37' W 047°05'612.8
2017-Nov-15 17:30S 25°40' W 047°12'  
2017-Nov-12 20:04S 26°12' W 048°23'0 0.1
2017-Nov-12 19:55S 26°12' W 048°23'0 0.0
2017-Nov-12 18:55S 26°12' W 048°23'0 0.0
2017-Nov-12 07:57S 26°12' W 048°23'0 0.1
2017-Nov-12 07:12S 26°12' W 048°23'0 0.1
2017-Nov-12 06:57S 26°12' W 048°23'0 0.0
2017-Nov-12 06:21S 26°12' W 048°23'0 0.0
2017-Nov-12 05:57S 26°12' W 048°23'0 0.0
2017-Nov-12 05:27S 26°12' W 048°23'0 0.0
2017-Nov-12 05:00S 26°12' W 048°23'0 0.0
2017-Nov-12 04:27S 26°12' W 048°23'0 0.0
2017-Nov-12 03:57S 26°12' W 048°23'0 0.0
2017-Nov-12 03:21S 26°12' W 048°23'0 0.0
2017-Nov-12 02:51S 26°12' W 048°23'0 0.0
2017-Nov-12 02:21S 26°12' W 048°23'0 0.0
2017-Nov-12 01:57S 26°12' W 048°23'0 0.0
2017-Nov-12 01:27S 26°12' W 048°23'0 0.0
2017-Nov-12 00:57S 26°12' W 048°23'3 0.7
2017-Nov-11 20:34S 26°10' W 048°21'1 8.7
2017-Nov-11 20:30S 26°09' W 048°20'  
Track history (hours):
 
Tides and Currents Weather Stations Pressure Air Temp Water Temp Dewpoint Dewpoint Depression Visibility Wind Speed Wind Dir Waves Ship Positions

Ocean Exporter

Last reported at 2017-Nov-16 05:45 UTC. Time now 2017-Dec-14 04:35 UTC.
Position S 24°35' W 044°42'.
Warning: this ship's position is 27 days out of date.

Length 169 m; draft 5.6 m.

Type: Cargo ship. MMSI: 477980000.

Date/timePositionNaut miles runAvg speedWind from/ knotsBaromVisibWave heightAir tempDewpointWater temp
2017-Nov-16 05:45S 24°35' W 044°42'310.9
2017-Nov-16 05:28S 24°36' W 044°45'5911.8
2017-Nov-16 00:27S 25°02' W 045°44'712.5
2017-Nov-15 23:52S 25°05' W 045°51'512.5
2017-Nov-15 23:28S 25°07' W 045°56'612.6
2017-Nov-15 22:58S 25°10' W 046°03'712.7
2017-Nov-15 22:27S 25°13' W 046°09'612.6
2017-Nov-15 22:00S 25°15' W 046°15'812.6
2017-Nov-15 21:23S 25°18' W 046°23'912.6
2017-Nov-15 20:39S 25°22' W 046°32'412.6
2017-Nov-15 20:22S 25°24' W 046°35'712.6
2017-Nov-15 19:49S 25°27' W 046°42'512.6
2017-Nov-15 19:26S 25°29' W 046°47'512.7
2017-Nov-15 19:00S 25°31' W 046°52'712.7
2017-Nov-15 18:27S 25°34' W 046°59'612.7
2017-Nov-15 17:59S 25°37' W 047°05'612.8
2017-Nov-15 17:30S 25°40' W 047°12'  
2017-Nov-12 20:04S 26°12' W 048°23'0 0.1
2017-Nov-12 19:55S 26°12' W 048°23'0 0.0
2017-Nov-12 18:55S 26°12' W 048°23'0 0.0
2017-Nov-12 07:57S 26°12' W 048°23'0 0.1
2017-Nov-12 07:12S 26°12' W 048°23'0 0.1
2017-Nov-12 06:57S 26°12' W 048°23'0 0.0
2017-Nov-12 06:21S 26°12' W 048°23'0 0.0
2017-Nov-12 05:57S 26°12' W 048°23'0 0.0
2017-Nov-12 05:27S 26°12' W 048°23'0 0.0
2017-Nov-12 05:00S 26°12' W 048°23'0 0.0
2017-Nov-12 04:27S 26°12' W 048°23'0 0.0
2017-Nov-12 03:57S 26°12' W 048°23'0 0.0
2017-Nov-12 03:21S 26°12' W 048°23'0 0.0
2017-Nov-12 02:51S 26°12' W 048°23'0 0.0
2017-Nov-12 02:21S 26°12' W 048°23'0 0.0
2017-Nov-12 01:57S 26°12' W 048°23'0 0.0
2017-Nov-12 01:27S 26°12' W 048°23'0 0.0
2017-Nov-12 00:57S 26°12' W 048°23'3 0.7
2017-Nov-11 20:34S 26°10' W 048°21'1 8.7
2017-Nov-11 20:30S 26°09' W 048°20'  

Dump ship's entire track history